Time;durP1;ratioP1;P1;durP2;ratioP2;P2;SDS_P1;SDS_P2;PMS_P1;PMS_P2;Temp;Humidity;BMP_temperature;BMP_pressure;BME280_temperature;BME280_humidity;BME280_pressure;Samples;Min_cycle;Max_cycle;Signal;HPM_P1;HPM_P2
2023/07/03 00:00:25;;;;;;;17.95;5.80;;;;;;;;;;4990839;28;20048;-87
2023/07/03 00:02:52;;;;;;;18.35;5.63;;;;;;;;;;4983981;28;20077;-82
2023/07/03 00:05:18;;;;;;;20.95;5.88;;;;;;;;;;4986934;28;20054;-85
2023/07/03 00:07:46;;;;;;;17.35;6.38;;;;;;;;;;4987489;28;20050;-82
2023/07/03 00:10:12;;;;;;;19.48;6.72;;;;;;;;;;4997382;28;20415;-82
2023/07/03 00:12:38;;;;;;;23.55;5.70;;;;;;;;;;4992565;28;20581;-82
2023/07/03 00:15:05;;;;;;;19.23;5.53;;;;;;;;;;4992091;28;20046;-83
2023/07/03 00:17:31;;;;;;;19.80;5.40;;;;;;;;;;4996156;28;20099;-84
2023/07/03 00:19:57;;;;;;;18.10;5.53;;;;;;;;;;4995444;28;20042;-86
2023/07/03 00:22:24;;;;;;;15.82;5.43;;;;;;;;;;5012608;28;20664;-83
2023/07/03 00:24:50;;;;;;;17.67;5.68;;;;;;;;;;5021716;28;20131;-84
2023/07/03 00:27:16;;;;;;;20.58;5.30;;;;;;;;;;4991375;28;20038;-82
2023/07/03 00:29:43;;;;;;;17.98;5.97;;;;;;;;;;4988590;28;20054;-83
2023/07/03 00:32:09;;;;;;;17.98;5.43;;;;;;;;;;4996145;28;20037;-87
2023/07/03 00:34:35;;;;;;;14.40;5.25;;;;;;;;;;5009572;28;20077;-84
2023/07/03 00:37:01;;;;;;;16.27;6.15;;;;;;;;;;5007834;28;20121;-83
2023/07/03 00:39:27;;;;;;;15.98;5.78;;;;;;;;;;5012523;28;20675;-83
2023/07/03 00:41:53;;;;;;;16.60;5.47;;;;;;;;;;4998026;28;20173;-84
2023/07/03 00:44:20;;;;;;;18.08;6.03;;;;;;;;;;5014552;28;20050;-82
2023/07/03 00:46:48;;;;;;;15.75;5.40;;;;;;;;;;4991211;28;20103;-84
2023/07/03 00:49:14;;;;;;;17.42;5.65;;;;;;;;;;4997464;28;20132;-85
2023/07/03 00:51:42;;;;;;;15.27;5.82;;;;;;;;;;5015462;28;20046;-86
2023/07/03 00:54:08;;;;;;;19.58;6.07;;;;;;;;;;5011341;28;20156;-87
2023/07/03 00:56:34;;;;;;;19.58;6.13;;;;;;;;;;5011651;28;20054;-87
2023/07/03 00:59:01;;;;;;;20.77;5.85;;;;;;;;;;4996466;28;20045;-85
2023/07/03 01:01:36;;;;;;;20.77;6.40;;;;;;;;;;4999173;28;20580;-86
2023/07/03 01:04:14;;;;;;;20.45;6.38;;;;;;;;;;5008972;28;20731;-86
2023/07/03 01:07:02;;;;;;;23.38;6.13;;;;;;;;;;4993419;28;20041;-84
2023/07/03 01:09:32;;;;;;;18.40;6.45;;;;;;;;;;5014779;28;20041;-87
2023/07/03 01:11:58;;;;;;;18.50;6.70;;;;;;;;;;5012704;28;20480;-86
2023/07/03 01:14:24;;;;;;;19.90;6.05;;;;;;;;;;5015883;28;20658;-85
2023/07/03 01:16:51;;;;;;;18.00;6.38;;;;;;;;;;5011679;28;20054;-84
2023/07/03 01:19:29;;;;;;;25.48;7.10;;;;;;;;;;4988741;28;20034;-87
2023/07/03 01:21:59;;;;;;;20.27;6.20;;;;;;;;;;5008937;28;20053;-81
2023/07/03 01:24:31;;;;;;;22.60;7.25;;;;;;;;;;5010790;28;20045;-86
2023/07/03 01:26:57;;;;;;;23.38;6.38;;;;;;;;;;4994399;28;20045;-86
2023/07/03 01:29:24;;;;;;;24.65;7.35;;;;;;;;;;5011455;28;20025;-85
2023/07/03 01:31:50;;;;;;;25.98;6.70;;;;;;;;;;5013087;28;20041;-85
2023/07/03 01:34:17;;;;;;;19.00;6.25;;;;;;;;;;4992996;28;20048;-86
2023/07/03 01:36:43;;;;;;;19.88;6.90;;;;;;;;;;4977069;28;20081;-85
2023/07/03 01:39:09;;;;;;;20.23;6.68;;;;;;;;;;5008028;28;20046;-84
2023/07/03 01:41:36;;;;;;;20.90;6.50;;;;;;;;;;4997103;28;20066;-84
2023/07/03 01:44:02;;;;;;;19.55;6.53;;;;;;;;;;5011098;28;20044;-82
2023/07/03 01:46:28;;;;;;;22.38;6.95;;;;;;;;;;5008508;28;20049;-83
2023/07/03 01:48:54;;;;;;;21.30;6.53;;;;;;;;;;4993866;28;20092;-87
2023/07/03 01:51:33;;;;;;;24.08;7.00;;;;;;;;;;4992241;28;20060;-86
2023/07/03 01:54:06;;;;;;;22.58;6.60;;;;;;;;;;4992661;28;20069;-82
2023/07/03 01:56:35;;;;;;;17.60;5.88;;;;;;;;;;4989527;28;20124;-87
2023/07/03 01:59:09;;;;;;;16.75;5.82;;;;;;;;;;5011108;28;21218;-86
2023/07/03 02:01:43;;;;;;;26.27;6.35;;;;;;;;;;5013124;28;20045;-85
2023/07/03 02:04:18;;;;;;;19.98;6.18;;;;;;;;;;5006222;28;20072;-86
2023/07/03 02:06:45;;;;;;;21.35;6.88;;;;;;;;;;4995075;28;20077;-86
2023/07/03 02:09:12;;;;;;;20.70;6.22;;;;;;;;;;5016000;28;20092;-85
2023/07/03 02:11:38;;;;;;;24.50;6.40;;;;;;;;;;5014241;28;20547;-83
2023/07/03 02:14:05;;;;;;;17.40;5.90;;;;;;;;;;4997646;28;20050;-86
2023/07/03 02:16:31;;;;;;;19.00;6.50;;;;;;;;;;5010468;28;20046;-82
2023/07/03 02:18:58;;;;;;;25.27;6.28;;;;;;;;;;5007796;28;20049;-87
2023/07/03 02:21:24;;;;;;;27.05;6.47;;;;;;;;;;5013920;28;20092;-86
2023/07/03 02:23:50;;;;;;;20.70;6.32;;;;;;;;;;4993288;28;20045;-84
2023/07/03 02:26:16;;;;;;;18.83;5.95;;;;;;;;;;4988516;28;20053;-86
2023/07/03 02:28:42;;;;;;;16.30;5.68;;;;;;;;;;5010118;28;20524;-85
2023/07/03 02:31:08;;;;;;;22.83;6.35;;;;;;;;;;4976475;28;20049;-87
2023/07/03 02:33:34;;;;;;;17.90;5.38;;;;;;;;;;4999658;28;20122;-85
2023/07/03 02:36:04;;;;;;;18.90;5.45;;;;;;;;;;4979500;28;20124;-85
2023/07/03 02:38:30;;;;;;;18.25;5.30;;;;;;;;;;4971143;28;20104;-86
2023/07/03 02:40:57;;;;;;;16.67;4.80;;;;;;;;;;4989864;28;20053;-88
2023/07/03 02:43:23;;;;;;;17.05;4.93;;;;;;;;;;4993178;28;20072;-85
2023/07/03 02:45:49;;;;;;;17.27;4.80;;;;;;;;;;4990338;28;20444;-86
2023/07/03 02:48:15;;;;;;;20.33;5.13;;;;;;;;;;5008054;28;20037;-87
2023/07/03 02:50:41;;;;;;;23.45;5.63;;;;;;;;;;5007258;28;20055;-84
2023/07/03 02:53:07;;;;;;;18.15;5.07;;;;;;;;;;5016905;28;20832;-88
2023/07/03 02:55:33;;;;;;;20.67;5.38;;;;;;;;;;5010795;28;20608;-86
2023/07/03 02:57:59;;;;;;;17.48;5.22;;;;;;;;;;5013669;28;20542;-86
2023/07/03 03:00:27;;;;;;;12.77;5.03;;;;;;;;;;5013759;28;20054;-86
2023/07/03 03:02:53;;;;;;;15.45;4.85;;;;;;;;;;4998616;28;20049;-85
2023/07/03 03:05:19;;;;;;;21.27;4.95;;;;;;;;;;5004565;28;20056;-86
2023/07/03 03:07:46;;;;;;;18.88;5.20;;;;;;;;;;5003562;28;20049;-81
2023/07/03 03:10:12;;;;;;;20.27;5.50;;;;;;;;;;4988532;28;20160;-87
2023/07/03 03:12:38;;;;;;;17.38;5.47;;;;;;;;;;5004550;28;20935;-84
2023/07/03 03:15:05;;;;;;;18.85;4.80;;;;;;;;;;5009436;28;20061;-87
2023/07/03 03:17:31;;;;;;;15.70;4.57;;;;;;;;;;5004997;28;20076;-84
2023/07/03 03:19:57;;;;;;;17.15;4.78;;;;;;;;;;5017892;28;20045;-85
2023/07/03 03:22:23;;;;;;;16.90;4.25;;;;;;;;;;5003872;28;20046;-86
2023/07/03 03:24:49;;;;;;;16.90;5.10;;;;;;;;;;4987111;28;20516;-87
2023/07/03 03:27:15;;;;;;;22.02;4.65;;;;;;;;;;5021444;28;20071;-86
2023/07/03 03:29:40;;;;;;;18.92;4.40;;;;;;;;;;5003867;28;20041;-83
2023/07/03 03:32:07;;;;;;;14.25;4.13;;;;;;;;;;5009424;28;20041;-82
2023/07/03 03:34:34;;;;;;;22.70;5.15;;;;;;;;;;4995587;28;20034;-79
2023/07/03 03:37:00;;;;;;;19.25;4.03;;;;;;;;;;4992293;28;20042;-83
2023/07/03 03:39:26;;;;;;;20.60;4.47;;;;;;;;;;5010341;28;20050;-85
2023/07/03 03:41:52;;;;;;;13.18;3.30;;;;;;;;;;4997357;28;20124;-86
2023/07/03 03:44:18;;;;;;;13.85;3.83;;;;;;;;;;5011173;28;20050;-84
2023/07/03 03:46:44;;;;;;;15.63;3.80;;;;;;;;;;5010826;28;20050;-86
2023/07/03 03:49:10;;;;;;;15.98;3.92;;;;;;;;;;5012942;28;20500;-86
2023/07/03 03:51:37;;;;;;;14.13;3.92;;;;;;;;;;4971060;28;20042;-85
2023/07/03 03:54:03;;;;;;;13.85;4.00;;;;;;;;;;4990806;28;20146;-79
2023/07/03 03:56:29;;;;;;;13.27;3.40;;;;;;;;;;5014776;28;20069;-86
2023/07/03 03:58:55;;;;;;;16.35;3.80;;;;;;;;;;5015836;28;20069;-87
2023/07/03 04:01:21;;;;;;;15.15;3.92;;;;;;;;;;4999871;28;20132;-86
2023/07/03 04:03:47;;;;;;;11.32;3.20;;;;;;;;;;4995195;28;20037;-81
2023/07/03 04:06:16;;;;;;;13.57;3.47;;;;;;;;;;5018070;28;20072;-85
2023/07/03 04:08:42;;;;;;;11.65;3.35;;;;;;;;;;4998037;28;20130;-83
2023/07/03 04:11:08;;;;;;;11.48;3.42;;;;;;;;;;5016213;28;20100;-85
2023/07/03 04:13:34;;;;;;;12.02;3.28;;;;;;;;;;5007706;28;20516;-84
2023/07/03 04:16:01;;;;;;;17.13;3.38;;;;;;;;;;5000604;28;20033;-86
2023/07/03 04:18:27;;;;;;;17.10;3.28;;;;;;;;;;5014450;28;20091;-80
2023/07/03 04:20:53;;;;;;;11.45;3.30;;;;;;;;;;5009985;28;20052;-85
2023/07/03 04:23:23;;;;;;;13.73;3.83;;;;;;;;;;5013592;28;20038;-82
2023/07/03 04:25:49;;;;;;;13.10;3.10;;;;;;;;;;5014521;28;20052;-84
2023/07/03 04:28:16;;;;;;;11.93;2.85;;;;;;;;;;5017288;28;20041;-82
2023/07/03 04:30:43;;;;;;;16.63;3.25;;;;;;;;;;4995024;28;20089;-84
2023/07/03 04:33:11;;;;;;;15.00;3.33;;;;;;;;;;5016220;28;20464;-86
2023/07/03 04:35:38;;;;;;;12.65;3.10;;;;;;;;;;5012812;28;20061;-80
2023/07/03 04:38:04;;;;;;;12.23;3.08;;;;;;;;;;5014776;28;20237;-86
2023/07/03 04:40:30;;;;;;;10.50;3.10;;;;;;;;;;5008729;28;20060;-83
2023/07/03 04:42:59;;;;;;;12.07;3.17;;;;;;;;;;5014809;28;20366;-86
2023/07/03 04:45:26;;;;;;;16.13;3.70;;;;;;;;;;4994237;28;20483;-85
2023/07/03 04:47:53;;;;;;;11.57;3.00;;;;;;;;;;5012692;28;20885;-84
2023/07/03 04:50:24;;;;;;;12.10;2.53;;;;;;;;;;4996215;28;20049;-81
2023/07/03 04:52:50;;;;;;;13.55;3.08;;;;;;;;;;4996793;28;20073;-85
2023/07/03 04:55:17;;;;;;;11.02;2.50;;;;;;;;;;5009417;28;20462;-84
2023/07/03 04:57:43;;;;;;;8.00;2.83;;;;;;;;;;5018706;28;20107;-82
2023/07/03 05:00:18;;;;;;;9.38;2.85;;;;;;;;;;5011027;28;20731;-82
2023/07/03 05:02:45;;;;;;;14.43;2.80;;;;;;;;;;5019391;28;20510;-83
2023/07/03 05:05:11;;;;;;;13.07;2.72;;;;;;;;;;5000521;28;20091;-83
2023/07/03 05:07:38;;;;;;;12.25;2.47;;;;;;;;;;5014965;28;20045;-82
2023/07/03 05:10:05;;;;;;;15.20;3.05;;;;;;;;;;5021318;28;20559;-85
2023/07/03 05:12:31;;;;;;;13.20;3.03;;;;;;;;;;5020133;28;20084;-85
2023/07/03 05:14:57;;;;;;;8.82;2.40;;;;;;;;;;5016913;28;20065;-86
2023/07/03 05:17:23;;;;;;;12.45;2.53;;;;;;;;;;5004724;28;20034;-83
2023/07/03 05:19:49;;;;;;;12.68;2.97;;;;;;;;;;5022459;28;20438;-87
2023/07/03 05:22:15;;;;;;;12.40;2.75;;;;;;;;;;4999720;28;20045;-80
2023/07/03 05:24:41;;;;;;;11.52;2.40;;;;;;;;;;5021195;28;20534;-87
2023/07/03 05:27:07;;;;;;;11.88;2.33;;;;;;;;;;5002262;28;20049;-85
2023/07/03 05:29:33;;;;;;;14.25;2.75;;;;;;;;;;5024442;28;20049;-87
2023/07/03 05:32:00;;;;;;;10.73;2.70;;;;;;;;;;5016103;28;20030;-87
2023/07/03 05:34:37;;;;;;;15.60;2.88;;;;;;;;;;5024110;28;20479;-87
2023/07/03 05:37:13;;;;;;;10.70;2.60;;;;;;;;;;4967024;28;20127;-86
2023/07/03 05:39:39;;;;;;;14.80;2.58;;;;;;;;;;5004462;28;20053;-86
2023/07/03 05:42:05;;;;;;;10.50;2.53;;;;;;;;;;5006131;28;20126;-87
2023/07/03 05:44:31;;;;;;;12.20;2.58;;;;;;;;;;5018734;28;20128;-86
2023/07/03 05:46:57;;;;;;;10.18;2.38;;;;;;;;;;5012123;28;20041;-87
2023/07/03 05:49:23;;;;;;;8.77;2.38;;;;;;;;;;5017175;28;20045;-85
2023/07/03 05:51:49;;;;;;;10.63;2.38;;;;;;;;;;5021555;28;20458;-88
2023/07/03 05:54:41;;;;;;;13.10;3.20;;;;;;;;;;5003282;28;20115;-88
2023/07/03 05:57:09;;;;;;;13.52;2.83;;;;;;;;;;4987955;28;20068;-88
2023/07/03 05:59:36;;;;;;;11.85;2.38;;;;;;;;;;5017936;28;20041;-88
2023/07/03 06:02:03;;;;;;;11.85;2.75;;;;;;;;;;5017716;28;20076;-83
2023/07/03 06:04:29;;;;;;;10.50;2.60;;;;;;;;;;5022394;28;20566;-87
2023/07/03 06:06:56;;;;;;;10.93;2.80;;;;;;;;;;5021875;28;20160;-85
2023/07/03 06:09:22;;;;;;;13.80;2.70;;;;;;;;;;5012510;28;20559;-83
2023/07/03 06:11:48;;;;;;;14.23;2.33;;;;;;;;;;5019057;28;20045;-87
2023/07/03 06:14:16;;;;;;;12.38;2.90;;;;;;;;;;5009876;28;20044;-85
2023/07/03 06:16:46;;;;;;;10.60;2.45;;;;;;;;;;5016549;28;20152;-86
2023/07/03 06:19:21;;;;;;;8.02;2.22;;;;;;;;;;5021008;28;20045;-83
2023/07/03 06:21:48;;;;;;;10.80;2.30;;;;;;;;;;5012657;28;20049;-83
2023/07/03 06:24:14;;;;;;;11.45;2.63;;;;;;;;;;5018035;28;20548;-85
2023/07/03 06:26:40;;;;;;;9.65;2.55;;;;;;;;;;5014704;28;20379;-85
2023/07/03 06:29:07;;;;;;;11.10;2.20;;;;;;;;;;5015621;28;20130;-87
2023/07/03 06:31:33;;;;;;;13.73;2.50;;;;;;;;;;5001789;28;20438;-84
2023/07/03 06:33:59;;;;;;;10.02;2.20;;;;;;;;;;5016678;28;20128;-84
2023/07/03 06:36:25;;;;;;;11.80;2.70;;;;;;;;;;5007146;28;20037;-84
2023/07/03 06:38:55;;;;;;;14.50;2.50;;;;;;;;;;5002845;28;20053;-84
2023/07/03 06:41:22;;;;;;;11.32;2.15;;;;;;;;;;5010100;28;20061;-82
2023/07/03 06:43:48;;;;;;;14.55;2.55;;;;;;;;;;5016518;28;20073;-82
2023/07/03 06:46:14;;;;;;;10.43;2.40;;;;;;;;;;4996548;28;20527;-84
2023/07/03 06:48:40;;;;;;;14.57;3.13;;;;;;;;;;5014506;28;20037;-85
2023/07/03 06:51:08;;;;;;;13.70;2.63;;;;;;;;;;5007550;28;20046;-83
2023/07/03 06:53:34;;;;;;;14.07;2.60;;;;;;;;;;5010618;28;20125;-83
2023/07/03 06:56:01;;;;;;;14.75;2.80;;;;;;;;;;4984801;28;20275;-82
2023/07/03 06:58:28;;;;;;;12.00;2.85;;;;;;;;;;5009278;28;20121;-83
2023/07/03 07:00:54;;;;;;;13.55;2.90;;;;;;;;;;5016377;28;20080;-83
2023/07/03 07:03:20;;;;;;;13.48;2.85;;;;;;;;;;5010642;28;20088;-82
2023/07/03 07:05:46;;;;;;;15.27;3.00;;;;;;;;;;4990220;28;20410;-83
2023/07/03 07:08:18;;;;;;;10.85;2.80;;;;;;;;;;4987275;28;20559;-82
2023/07/03 07:10:44;;;;;;;13.50;2.67;;;;;;;;;;5015354;28;20083;-82
2023/07/03 07:13:11;;;;;;;10.70;2.67;;;;;;;;;;4991292;28;20085;-85
2023/07/03 07:15:40;;;;;;;15.18;2.83;;;;;;;;;;5009936;28;20482;-82
2023/07/03 07:18:07;;;;;;;14.13;2.92;;;;;;;;;;5003584;28;20038;-83
2023/07/03 07:20:37;;;;;;;13.38;2.78;;;;;;;;;;4992934;28;20103;-79
2023/07/03 07:23:03;;;;;;;10.13;2.30;;;;;;;;;;5007754;28;20177;-79
2023/07/03 07:25:29;;;;;;;17.55;3.55;;;;;;;;;;5002954;28;20065;-81
2023/07/03 07:28:07;;;;;;;8.75;2.25;;;;;;;;;;5005518;28;20044;-84
2023/07/03 07:30:37;;;;;;;13.55;2.80;;;;;;;;;;5008651;28;20619;-83
2023/07/03 07:33:22;;;;;;;8.18;2.75;;;;;;;;;;5003562;28;20088;-83
2023/07/03 07:35:49;;;;;;;11.52;2.65;;;;;;;;;;5005611;28;20045;-84
2023/07/03 07:38:18;;;;;;;7.72;1.98;;;;;;;;;;5008447;28;20129;-78
2023/07/03 07:44:28;;;;;;;7.80;1.90;;;;;;;;;;5003108;28;20775;-80
2023/07/03 07:46:54;;;;;;;9.23;2.00;;;;;;;;;;4994770;28;20140;-81
2023/07/03 07:49:23;;;;;;;6.90;1.73;;;;;;;;;;4989103;28;20064;-82
2023/07/03 07:51:49;;;;;;;;;;;;;;;;;;4985002;28;20052;-82
2023/07/03 07:54:15;;;;;;;10.18;2.30;;;;;;;;;;4977455;28;19921;-79
2023/07/03 07:56:45;;;;;;;10.07;2.47;;;;;;;;;;4974011;28;20049;-80
2023/07/03 07:59:11;;;;;;;9.85;1.90;;;;;;;;;;4973110;28;20119;-82
2023/07/03 08:01:37;;;;;;;6.82;1.40;;;;;;;;;;4991134;28;20045;-82
2023/07/03 08:04:03;;;;;;;4.85;1.50;;;;;;;;;;4997605;28;20886;-81
2023/07/03 08:06:32;;;;;;;7.90;1.70;;;;;;;;;;5011069;28;20042;-81
2023/07/03 08:08:58;;;;;;;8.77;2.10;;;;;;;;;;4998876;28;20549;-83
2023/07/03 08:11:25;;;;;;;7.10;1.70;;;;;;;;;;5007463;28;21148;-86
2023/07/03 08:13:51;;;;;;;8.38;1.98;;;;;;;;;;4993360;28;20053;-84
2023/07/03 08:16:20;;;;;;;6.78;2.03;;;;;;;;;;5007702;28;20056;-81
2023/07/03 08:18:46;;;;;;;7.80;1.75;;;;;;;;;;4999523;28;20057;-81
2023/07/03 08:21:13;;;;;;;7.97;1.80;;;;;;;;;;4998906;28;20080;-84
2023/07/03 08:23:39;;;;;;;8.60;1.92;;;;;;;;;;4977372;28;20125;-87
2023/07/03 08:26:05;;;;;;;9.20;1.83;;;;;;;;;;5003945;28;20048;-82
2023/07/03 08:28:32;;;;;;;8.32;1.77;;;;;;;;;;4996853;28;20061;-89
2023/07/03 08:30:59;;;;;;;9.75;1.73;;;;;;;;;;5003438;28;20041;-87
2023/07/03 08:33:25;;;;;;;10.40;1.77;;;;;;;;;;5007424;28;20045;-79
2023/07/03 08:35:51;;;;;;;8.07;1.60;;;;;;;;;;4991101;28;20159;-81
2023/07/03 08:38:17;;;;;;;5.95;1.75;;;;;;;;;;5001143;28;20069;-83
2023/07/03 08:40:43;;;;;;;10.57;1.98;;;;;;;;;;4989278;28;20202;-80
2023/07/03 08:43:13;;;;;;;6.72;1.70;;;;;;;;;;4987320;28;20579;-79
2023/07/03 08:45:41;;;;;;;10.30;1.95;;;;;;;;;;4989986;28;20049;-85
2023/07/03 08:48:10;;;;;;;11.43;1.70;;;;;;;;;;5004541;28;20396;-79
2023/07/03 08:50:36;;;;;;;10.63;1.90;;;;;;;;;;5009261;28;20389;-85
2023/07/03 08:53:04;;;;;;;7.70;1.70;;;;;;;;;;4993885;28;20061;-83
2023/07/03 08:55:34;;;;;;;10.13;1.67;;;;;;;;;;4982347;28;20129;-81
2023/07/03 08:58:01;;;;;;;11.20;1.77;;;;;;;;;;4979363;28;20112;-81
2023/07/03 09:00:27;;;;;;;9.63;2.50;;;;;;;;;;4995409;28;20216;-82
2023/07/03 09:02:59;;;;;;;8.65;1.77;;;;;;;;;;4989730;28;20646;-83
2023/07/03 09:05:40;;;;;;;8.05;1.67;;;;;;;;;;5007643;28;20569;-83
2023/07/03 09:08:09;;;;;;;7.43;1.92;;;;;;;;;;4985039;28;20056;-83
2023/07/03 09:10:35;;;;;;;;;;;;;;;;;;4995769;28;20098;-86
2023/07/03 09:13:23;;;;;;;9.10;1.92;;;;;;;;;;4992978;28;19928;-82
2023/07/03 09:16:07;;;;;;;9.02;1.80;;;;;;;;;;4982402;28;20049;-83
2023/07/03 09:18:36;;;;;;;8.93;1.80;;;;;;;;;;4999037;28;20041;-80
2023/07/03 09:21:03;;;;;;;8.50;1.83;;;;;;;;;;5003408;28;20046;-81
2023/07/03 09:23:33;;;;;;;5.93;1.60;;;;;;;;;;4994226;28;20107;-83
2023/07/03 09:26:02;;;;;;;9.77;1.98;;;;;;;;;;4999968;28;20621;-82
2023/07/03 09:28:29;;;;;;;5.97;1.52;;;;;;;;;;4999710;28;20049;-85
2023/07/03 09:30:55;;;;;;;7.70;1.83;;;;;;;;;;4988318;28;20057;-85
2023/07/03 09:33:21;;;;;;;8.27;1.58;;;;;;;;;;5001208;28;20094;-85
2023/07/03 09:35:47;;;;;;;14.65;1.75;;;;;;;;;;5000854;28;20114;-84
2023/07/03 09:38:24;;;;;;;6.75;1.60;;;;;;;;;;5002812;28;20053;-80
2023/07/03 09:40:52;;;;;;;6.40;1.48;;;;;;;;;;5001507;28;20042;-82
2023/07/03 09:43:20;;;;;;;7.07;1.60;;;;;;;;;;4984398;28;20284;-82
2023/07/03 09:45:46;;;;;;;5.97;1.37;;;;;;;;;;4977784;28;20049;-81
2023/07/03 09:48:17;;;;;;;5.18;1.20;;;;;;;;;;4981577;28;20084;-82
2023/07/03 09:50:45;;;;;;;6.80;1.33;;;;;;;;;;4991311;28;20141;-81
2023/07/03 09:53:15;;;;;;;5.82;1.50;;;;;;;;;;4989424;28;20049;-80
2023/07/03 09:55:43;;;;;;;6.30;1.33;;;;;;;;;;4992312;28;20123;-82
2023/07/03 09:58:18;;;;;;;9.68;1.77;;;;;;;;;;4972724;28;20107;-83
2023/07/03 10:00:46;;;;;;;6.97;1.35;;;;;;;;;;4991359;28;20061;-83
2023/07/03 10:03:12;;;;;;;5.27;1.17;;;;;;;;;;5000397;28;20076;-88
2023/07/03 10:05:43;;;;;;;4.85;1.23;;;;;;;;;;5000513;28;20363;-80
2023/07/03 10:08:10;;;;;;;5.65;1.58;;;;;;;;;;5011167;28;20051;-84
2023/07/03 10:10:36;;;;;;;7.45;1.30;;;;;;;;;;4998893;28;20690;-86
2023/07/03 10:13:08;;;;;;;4.03;1.05;;;;;;;;;;5006437;28;20068;-90
2023/07/03 10:15:37;;;;;;;5.05;1.38;;;;;;;;;;5005553;28;20053;-80
2023/07/03 10:18:06;;;;;;;6.93;1.40;;;;;;;;;;5002750;28;20037;-84
2023/07/03 10:20:42;;;;;;;6.95;1.27;;;;;;;;;;5008640;28;20404;-82
2023/07/03 10:23:10;;;;;;;5.53;1.45;;;;;;;;;;5005562;28;20046;-80
2023/07/03 10:25:44;;;;;;;5.32;1.40;;;;;;;;;;5012003;28;20044;-91
2023/07/03 10:28:21;;;;;;;6.93;1.30;;;;;;;;;;4996315;28;20719;-83
2023/07/03 10:30:48;;;;;;;5.53;1.27;;;;;;;;;;4975968;28;20076;-88
2023/07/03 10:33:18;;;;;;;5.93;1.27;;;;;;;;;;4990094;28;20037;-90
2023/07/03 10:35:47;;;;;;;5.80;1.38;;;;;;;;;;4996790;28;20045;-88
2023/07/03 10:38:16;;;;;;;5.57;1.55;;;;;;;;;;4987482;28;20042;-86
2023/07/03 10:41:00;;;;;;;6.22;1.10;;;;;;;;;;5014661;28;20065;-90
2023/07/03 10:43:29;;;;;;;6.35;1.27;;;;;;;;;;4992493;28;20176;-81
2023/07/03 10:45:55;;;;;;;2.35;0.85;;;;;;;;;;5007533;28;20868;-90
2023/07/03 10:48:24;;;;;;;4.70;1.13;;;;;;;;;;4986338;28;20101;-88
2023/07/03 10:50:50;;;;;;;;;;;;;;;;;;5006214;28;20099;-87
2023/07/03 10:53:30;;;;;;;2.40;1.00;;;;;;;;;;4988000;28;19921;-86
2023/07/03 10:55:59;;;;;;;6.45;1.63;;;;;;;;;;5016450;28;20064;-90
2023/07/03 10:58:40;;;;;;;3.70;1.00;;;;;;;;;;4995467;28;20049;-86
2023/07/03 11:01:19;;;;;;;5.15;1.35;;;;;;;;;;4974753;28;20049;-82
2023/07/03 11:03:49;;;;;;;4.78;1.15;;;;;;;;;;4987395;28;20540;-84
2023/07/03 11:06:19;;;;;;;6.82;1.20;;;;;;;;;;4986497;28;20493;-83
2023/07/03 11:08:52;;;;;;;6.78;1.27;;;;;;;;;;4988788;28;20054;-89
2023/07/03 11:11:35;;;;;;;3.97;1.20;;;;;;;;;;4993297;28;20599;-86
2023/07/03 11:14:09;;;;;;;4.55;1.30;;;;;;;;;;4990816;28;20119;-81
2023/07/03 11:16:42;;;;;;;4.90;1.15;;;;;;;;;;4985467;28;20057;-85
2023/07/03 11:19:17;;;;;;;6.30;1.10;;;;;;;;;;5005172;28;20050;-89
2023/07/03 11:21:57;;;;;;;5.80;1.33;;;;;;;;;;5003014;28;20540;-82
2023/07/03 11:24:26;;;;;;;8.05;1.77;;;;;;;;;;5006444;28;20080;-89
2023/07/03 11:26:57;;;;;;;7.30;1.20;;;;;;;;;;4972919;28;20053;-89
2023/07/03 11:29:23;;;;;;;5.45;1.05;;;;;;;;;;4997967;28;20045;-83
2023/07/03 11:31:50;;;;;;;5.82;1.20;;;;;;;;;;4988849;28;20473;-88
2023/07/03 11:34:17;;;;;;;7.90;1.45;;;;;;;;;;4990270;28;20053;-84
2023/07/03 11:36:44;;;;;;;6.78;1.35;;;;;;;;;;5010525;28;20037;-83
2023/07/03 11:39:21;;;;;;;7.03;1.23;;;;;;;;;;5006629;28;20059;-84
2023/07/03 11:41:50;;;;;;;4.43;1.23;;;;;;;;;;4999212;28;20058;-80
2023/07/03 11:44:20;;;;;;;12.40;1.58;;;;;;;;;;4982062;28;20645;-83
2023/07/03 11:46:53;;;;;;;2.85;1.10;;;;;;;;;;4983818;28;20085;-86
2023/07/03 11:49:19;;;;;;;6.25;1.15;;;;;;;;;;4977846;28;20105;-87
2023/07/03 11:51:45;;;;;;;7.97;1.00;;;;;;;;;;4969322;28;20049;-87
2023/07/03 11:54:22;;;;;;;4.90;1.10;;;;;;;;;;4966136;28;20053;-83
2023/07/03 11:56:49;;;;;;;6.95;1.30;;;;;;;;;;4990302;28;20052;-79
2023/07/03 11:59:17;;;;;;;7.03;1.30;;;;;;;;;;4992537;28;20129;-88
2023/07/03 12:01:43;;;;;;;5.00;1.33;;;;;;;;;;5005369;28;20062;-79
2023/07/03 12:04:09;;;;;;;3.35;0.90;;;;;;;;;;4984088;28;20074;-81
2023/07/03 12:06:38;;;;;;;6.82;1.30;;;;;;;;;;4983574;28;20044;-77
2023/07/03 12:09:25;;;;;;;5.70;1.10;;;;;;;;;;4986543;28;20521;-82
2023/07/03 12:12:01;;;;;;;4.97;1.10;;;;;;;;;;4997778;28;20061;-84
2023/07/03 12:14:44;;;;;;;4.22;1.25;;;;;;;;;;4990439;28;20096;-86
2023/07/03 12:17:29;;;;;;;4.18;0.98;;;;;;;;;;4980442;28;20057;-85
2023/07/03 12:19:57;;;;;;;6.65;1.30;;;;;;;;;;5007012;28;20042;-83
2023/07/03 12:22:25;;;;;;;;;;;;;;;;;;5008590;28;20041;-79
2023/07/03 12:25:00;;;;;;;5.22;1.30;;;;;;;;;;5010989;28;19943;-84
2023/07/03 12:27:26;;;;;;;6.15;1.30;;;;;;;;;;4979886;28;21001;-77
2023/07/03 12:29:55;;;;;;;8.20;1.35;;;;;;;;;;4990820;28;20195;-84
2023/07/03 12:32:31;;;;;;;5.78;1.30;;;;;;;;;;4986962;28;20501;-80
2023/07/03 12:35:14;;;;;;;5.93;1.02;;;;;;;;;;5005218;28;20049;-84
2023/07/03 12:37:48;;;;;;;5.35;1.40;;;;;;;;;;5003367;28;20052;-83
2023/07/03 12:40:15;;;;;;;4.30;1.20;;;;;;;;;;5006275;28;20053;-80
2023/07/03 12:42:41;;;;;;;4.75;1.13;;;;;;;;;;5003248;28;20049;-79
2023/07/03 12:45:13;;;;;;;4.47;1.20;;;;;;;;;;4984962;28;20061;-78
2023/07/03 12:47:39;;;;;;;6.68;1.58;;;;;;;;;;4998666;28;20045;-79
2023/07/03 12:50:05;;;;;;;7.50;1.50;;;;;;;;;;5008201;28;20100;-80
2023/07/03 12:52:33;;;;;;;3.72;1.20;;;;;;;;;;4989876;28;20057;-89
2023/07/03 12:55:00;;;;;;;4.45;0.98;;;;;;;;;;4986150;28;20398;-86
2023/07/03 12:57:27;;;;;;;4.05;1.20;;;;;;;;;;4988999;28;20046;-85
2023/07/03 12:59:53;;;;;;;7.05;1.25;;;;;;;;;;4972178;28;20088;-89
2023/07/03 13:02:24;;;;;;;6.00;1.30;;;;;;;;;;4988987;28;20060;-86
2023/07/03 13:05:12;;;;;;;6.75;1.30;;;;;;;;;;4987979;28;20077;-85
2023/07/03 13:07:41;;;;;;;7.13;1.50;;;;;;;;;;4989291;28;20580;-82
2023/07/03 13:10:09;;;;;;;5.20;1.40;;;;;;;;;;4988558;28;20118;-84
2023/07/03 13:12:36;;;;;;;6.13;1.52;;;;;;;;;;4984614;28;20096;-82
2023/07/03 13:15:09;;;;;;;6.50;1.60;;;;;;;;;;4991318;28;20080;-90
2023/07/03 13:17:36;;;;;;;5.90;1.35;;;;;;;;;;4984911;28;20049;-78
2023/07/03 13:20:19;;;;;;;7.32;1.88;;;;;;;;;;4990671;28;20111;-83
2023/07/03 13:22:50;;;;;;;8.65;1.67;;;;;;;;;;4976605;28;21184;-77
2023/07/03 13:25:37;;;;;;;8.35;1.77;;;;;;;;;;4989710;28;20128;-81
2023/07/03 13:28:05;;;;;;;9.75;1.60;;;;;;;;;;4993784;28;20219;-80
2023/07/03 13:30:34;;;;;;;4.43;1.42;;;;;;;;;;5003184;28;21167;-85
2023/07/03 13:33:23;;;;;;;9.02;1.70;;;;;;;;;;4991318;28;20399;-79
2023/07/03 13:35:51;;;;;;;6.50;1.70;;;;;;;;;;5007495;28;20056;-85
2023/07/03 13:38:23;;;;;;;7.53;1.60;;;;;;;;;;4984925;28;20509;-86
2023/07/03 13:40:50;;;;;;;6.32;1.35;;;;;;;;;;5004942;28;20049;-75
2023/07/03 13:43:23;;;;;;;6.60;1.23;;;;;;;;;;4982912;28;20049;-85
2023/07/03 13:45:49;;;;;;;6.03;1.40;;;;;;;;;;4987001;28;20062;-88
2023/07/03 13:48:16;;;;;;;7.88;1.60;;;;;;;;;;4982931;28;20454;-86
2023/07/03 13:50:42;;;;;;;7.25;1.38;;;;;;;;;;4984853;28;20046;-84
2023/07/03 13:53:08;;;;;;;7.18;1.80;;;;;;;;;;4986341;28;20064;-84
2023/07/03 13:55:34;;;;;;;7.93;1.73;;;;;;;;;;4987284;28;20168;-78
2023/07/03 13:58:00;;;;;;;7.57;1.40;;;;;;;;;;4989053;28;20041;-88
2023/07/03 14:00:33;;;;;;;7.75;1.60;;;;;;;;;;4981805;28;20596;-76
2023/07/03 14:02:58;;;;;;;9.63;1.25;;;;;;;;;;4985391;28;20112;-84
2023/07/03 14:05:24;;;;;;;9.80;1.40;;;;;;;;;;4987646;28;20679;-78
2023/07/03 14:07:50;;;;;;;7.95;1.38;;;;;;;;;;4992505;28;20121;-75
2023/07/03 14:10:16;;;;;;;5.80;1.35;;;;;;;;;;4986419;28;20434;-76
2023/07/03 14:12:42;;;;;;;6.45;1.60;;;;;;;;;;4983906;28;20061;-78
2023/07/03 14:15:16;;;;;;;5.88;1.17;;;;;;;;;;4982347;28;20058;-81
2023/07/03 14:17:42;;;;;;;5.00;1.38;;;;;;;;;;4977766;28;20057;-83
2023/07/03 14:20:12;;;;;;;6.70;1.33;;;;;;;;;;5001961;28;20049;-83
2023/07/03 14:22:38;;;;;;;4.20;1.20;;;;;;;;;;4986751;28;20528;-77
2023/07/03 14:25:04;;;;;;;5.80;1.70;;;;;;;;;;4989137;28;20160;-80
2023/07/03 14:27:34;;;;;;;4.25;1.05;;;;;;;;;;4988001;28;21360;-82
2023/07/03 14:30:00;;;;;;;5.68;1.10;;;;;;;;;;4988046;28;20053;-84
2023/07/03 14:32:26;;;;;;;5.45;1.05;;;;;;;;;;4985250;28;20491;-83
2023/07/03 14:34:52;;;;;;;3.95;0.98;;;;;;;;;;4986076;28;20053;-85
2023/07/03 14:37:18;;;;;;;6.05;1.35;;;;;;;;;;4982138;28;20049;-86
2023/07/03 14:39:45;;;;;;;6.78;1.00;;;;;;;;;;4977490;28;20054;-88
2023/07/03 14:42:11;;;;;;;4.88;1.35;;;;;;;;;;4985522;28;20793;-86
2023/07/03 14:44:37;;;;;;;6.32;1.77;;;;;;;;;;4980177;28;20065;-83
2023/07/03 14:47:03;;;;;;;4.88;1.10;;;;;;;;;;4982386;28;20133;-88
2023/07/03 14:49:29;;;;;;;5.60;1.50;;;;;;;;;;4986523;28;20057;-89